03:41
Airports
History
Links
Donate
Help keep this website running!
PayPal
Bitcoin
This page is community maintained. The information is intended for PC simulator navigation or reference.
Always use approved charts for navigation.
EHOW
Oostwold
Oostwold (EHOW)
Oostwold Gem Oldambt, Groningen, Netherlands (9682)
4
Lat/Lng:53° 12' 6" N / 7° 2' 1" E
53.201667 / 7.033611
Elevation:2'ft / 1mMSL
ID / ICAO:EHOW
Runways:1
Longest:07-25
Grass 998m / 3,274ft
Nearby Weather03:25 GMT 2017-12-13
Nearby weather at EHGG, Eelde located 19.6 nautical miles from EHOW
Altimeter: 29.71
Visibility: 6.2 statute miles
Wind: 15 knots (from 190°)
Temp: 2°c / 36°f
Humidity: %

METAR: EHGG 130325Z AUTO 19015KT 160V220 9999 NSC 02/M00 Q1006

(Powered by phpweather)
Nearby VORs <50NM
Nearby NDBs
Runway 07 / 25
Dimensions:997.8 x 75m 3274' x 246'ft
Surface:Grass
Edge Lights:Medium intensity
Runway 07 [A]Runway 25 [B]
Heading:063°TH 243°TH
Lat:
Lng:
53° 11' 58.83"N
7° 1' 36.76"E
53° 12' 13.18"N
7° 2' 25.24"E
User Notes and Comments
53° 12' 6" N / 7° 2' 1" E
Distance To
Airport ID:
Nearby Airports
(C) EMDEN 15.3 NM
EDWE NNE 31°
(C) Leer-Papenburg 17.6 NM
EDWF ENE 74°
(C) Eelde 19.6 NM
EHGG ( WX ) WSW 253°
(C) BORKUM 30.1 NM
EDWR NNW 333°
(C) Norden Norddeich 30.6 NM
EDWS NNE 12°
(C) Barssel 31.6 NM
EDXL E 94°
(C) Juist 33.2 NM
EDWJ N
VFR Chart
Flight Planning at SkyVector.com